createdAt,value
2018-04-07T00:01:45.263Z,72.50
2018-04-07T00:04:13.490Z,73.40
2018-04-07T00:06:40.985Z,73.40
2018-04-07T00:09:09.214Z,73.60
2018-04-07T00:11:36.708Z,73.60
2018-04-07T00:14:04.173Z,73.70
2018-04-07T00:16:32.414Z,73.90
2018-04-07T00:18:59.887Z,73.80
2018-04-07T00:21:28.119Z,74.30
2018-04-07T00:23:55.609Z,74.30
2018-04-07T00:26:23.068Z,74.40
2018-04-07T00:28:50.604Z,74.50
2018-04-07T00:31:18.072Z,74.60
2018-04-07T00:33:45.565Z,74.70
2018-04-07T00:36:13.786Z,75.00
2018-04-07T00:38:41.267Z,75.00
2018-04-07T00:41:08.826Z,75.20
2018-04-07T00:43:36.325Z,75.50
2018-04-07T00:46:03.930Z,75.30
2018-04-07T00:48:31.422Z,75.70
2018-04-07T00:50:58.884Z,75.50
2018-04-07T00:53:27.161Z,76.40
2018-04-07T00:55:55.417Z,76.60
2018-04-07T00:58:23.662Z,76.60
2018-04-07T01:00:51.145Z,76.70
2018-04-07T01:03:18.622Z,77.00
2018-04-07T01:05:46.872Z,77.40
2018-04-07T01:08:14.385Z,77.40
2018-04-07T01:10:41.863Z,77.50
2018-04-07T01:13:09.339Z,77.90
2018-04-07T01:15:37.289Z,78.20
2018-04-07T01:18:04.740Z,78.60
2018-04-07T01:20:32.290Z,78.70
2018-04-07T01:22:59.859Z,78.70
2018-04-07T01:25:27.339Z,79.00
2018-04-07T01:27:54.801Z,79.10
2018-04-07T01:30:22.281Z,79.80
2018-04-07T01:32:49.749Z,80.10
2018-04-07T01:35:17.981Z,80.90
2018-04-07T01:37:45.446Z,80.90
2018-04-07T01:40:13.070Z,80.70
2018-04-07T01:42:40.549Z,80.60
2018-04-07T01:45:08.011Z,80.70
2018-04-07T01:47:35.483Z,81.00
2018-04-07T01:50:02.968Z,81.40
2018-04-07T01:52:31.218Z,82.00
2018-04-07T01:54:58.686Z,81.90
2018-04-07T01:57:27.733Z,82.10
2018-04-07T01:59:55.203Z,82.10
2018-04-07T02:02:22.729Z,82.20
2018-04-07T02:04:50.342Z,82.80
2018-04-07T02:07:17.819Z,83.00
2018-04-07T02:09:46.059Z,83.80
2018-04-07T02:12:13.548Z,83.80
2018-04-07T02:14:41.638Z,83.80
2018-04-07T02:17:09.865Z,83.90
2018-04-07T02:19:37.352Z,83.90
2018-04-07T02:22:04.833Z,84.30
2018-04-07T02:24:33.074Z,84.80
2018-04-07T02:27:00.635Z,84.80
2018-04-07T02:29:28.104Z,84.90
2018-04-07T02:31:56.324Z,85.20
2018-04-07T02:34:23.812Z,85.20
2018-04-07T02:36:51.262Z,85.40
2018-04-07T02:39:18.747Z,85.40
2018-04-07T02:41:46.972Z,85.10
2018-04-07T02:44:14.455Z,85.50
2018-04-07T02:46:41.922Z,85.60
2018-04-07T02:49:09.528Z,85.70
2018-04-07T02:51:36.989Z,85.90
2018-04-07T02:54:04.485Z,86.10
2018-04-07T02:56:31.956Z,86.10
2018-04-07T02:58:59.444Z,86.60
2018-04-07T03:01:27.782Z,86.80
2018-04-07T03:03:55.264Z,86.70
2018-04-07T03:06:23.514Z,86.90
2018-04-07T03:08:50.974Z,86.90
2018-04-07T03:11:18.536Z,87.10
2018-04-07T03:13:46.001Z,87.50
2018-04-07T03:16:13.478Z,87.80
2018-04-07T03:18:41.813Z,87.80
2018-04-07T03:21:09.298Z,87.80
2018-04-07T03:23:36.752Z,87.70
2018-04-07T03:26:05.019Z,88.40
2018-04-07T03:28:33.259Z,87.70
2018-04-07T03:31:00.741Z,87.80
2018-04-07T03:33:28.204Z,87.80
2018-04-07T03:35:56.165Z,88.10
2018-04-07T03:38:23.629Z,89.20
2018-04-07T03:40:51.104Z,89.40
2018-04-07T03:43:18.568Z,89.40
2018-04-07T03:45:46.804Z,90.00
2018-04-07T03:48:14.869Z,90.00
2018-04-07T03:50:42.341Z,89.70
2018-04-07T03:53:09.813Z,89.70
2018-04-07T03:55:37.284Z,90.00
2018-04-07T03:58:05.517Z,90.10
2018-04-07T04:00:32.972Z,90.10
2018-04-07T04:03:00.431Z,90.30
2018-04-07T04:05:27.892Z,90.40
2018-04-07T04:07:55.818Z,90.50
2018-04-07T04:10:23.270Z,90.60
2018-04-07T04:12:50.729Z,90.70
2018-04-07T04:15:18.209Z,90.80
2018-04-07T04:17:45.684Z,90.90
2018-04-07T04:20:13.162Z,90.90
2018-04-07T04:22:40.601Z,91.00
2018-04-07T04:25:08.069Z,91.10
2018-04-07T04:27:35.750Z,91.20
2018-04-07T04:30:04.057Z,91.20
2018-04-07T04:32:31.544Z,91.30
2018-04-07T04:34:59.041Z,91.20
2018-04-07T04:37:26.494Z,91.30
2018-04-07T04:39:54.008Z,91.40
2018-04-07T04:42:21.465Z,91.20
2018-04-07T04:44:48.950Z,91.40
2018-04-07T04:47:17.291Z,91.60
2018-04-07T04:49:44.801Z,91.60
2018-04-07T04:52:12.271Z,91.70
2018-04-07T04:54:40.493Z,91.70
2018-04-07T04:57:07.953Z,91.70
2018-04-07T04:59:35.430Z,91.80
2018-04-07T05:02:02.902Z,91.80
2018-04-07T05:04:30.366Z,91.80
2018-04-07T05:06:58.602Z,92.10
2018-04-07T05:09:26.146Z,92.10
2018-04-07T05:11:53.668Z,92.20
2018-04-07T05:14:22.045Z,92.30
2018-04-07T05:16:50.289Z,92.40
2018-04-07T05:19:17.757Z,92.40
2018-04-07T05:21:45.256Z,92.20
2018-04-07T05:24:12.710Z,92.10
2018-04-07T05:26:40.296Z,92.00
2018-04-07T05:29:07.788Z,91.90
2018-04-07T05:31:35.282Z,91.90
2018-04-07T05:34:03.584Z,91.90
2018-04-07T05:36:31.061Z,91.90
2018-04-07T05:38:58.533Z,91.80
2018-04-07T05:41:25.989Z,92.00
2018-04-07T05:43:53.466Z,91.90
2018-04-07T05:46:21.801Z,91.90
2018-04-07T05:48:49.277Z,91.90
2018-04-07T05:51:16.776Z,91.90
2018-04-07T05:53:44.242Z,91.90
2018-04-07T05:56:11.711Z,91.90
2018-04-07T05:58:39.169Z,91.90
2018-04-07T06:01:06.789Z,91.80
2018-04-07T06:03:35.041Z,91.80
2018-04-07T06:06:02.515Z,91.70
2018-04-07T06:08:29.976Z,91.80
2018-04-07T06:10:58.246Z,91.70
2018-04-07T06:13:25.736Z,91.70
2018-04-07T06:15:53.209Z,91.40
2018-04-07T06:18:20.669Z,91.30
2018-04-07T06:20:48.138Z,90.90
2018-04-07T06:23:15.733Z,90.90
2018-04-07T06:25:43.207Z,90.90
2018-04-07T06:28:11.433Z,90.70
2018-04-07T06:30:38.922Z,90.70
2018-04-07T06:33:06.397Z,90.60
2018-04-07T06:35:34.753Z,90.30
2018-04-07T06:38:02.234Z,90.30
2018-04-07T06:40:30.459Z,90.30
2018-04-07T06:42:58.021Z,90.30
2018-04-07T06:45:25.591Z,90.30
2018-04-07T06:47:53.053Z,90.10
2018-04-07T06:50:20.682Z,90.10
2018-04-07T06:52:48.149Z,89.30
2018-04-07T06:55:15.617Z,89.20
2018-04-07T06:57:43.103Z,89.40
2018-04-07T07:00:10.579Z,90.00
2018-04-07T07:02:38.828Z,88.90
2018-04-07T07:05:06.296Z,88.90
2018-04-07T07:07:34.539Z,88.20
2018-04-07T07:10:02.004Z,88.10
2018-04-07T07:12:29.479Z,88.50
2018-04-07T07:14:56.956Z,87.90
2018-04-07T07:17:24.538Z,87.80
2018-04-07T07:19:52.001Z,86.80
2018-04-07T07:22:19.514Z,87.50
2018-04-07T07:24:47.737Z,87.00
2018-04-07T07:27:15.222Z,87.10
2018-04-07T07:29:42.695Z,86.10
2018-04-07T07:32:10.936Z,85.10
2018-04-07T07:34:38.457Z,85.20
2018-04-07T07:37:05.928Z,86.00
2018-04-07T07:39:33.406Z,85.70
2018-04-07T07:42:00.927Z,85.10
2018-04-07T07:44:28.460Z,85.50
2018-04-07T07:46:56.838Z,85.30
2018-04-07T07:49:24.502Z,85.30
2018-04-07T07:51:51.981Z,84.20
2018-04-07T07:54:20.232Z,84.40
2018-04-07T07:56:47.709Z,84.30
2018-04-07T07:59:16.089Z,83.60
2018-04-07T08:01:44.344Z,82.80
2018-04-07T08:04:11.828Z,82.80
2018-04-07T08:06:39.299Z,82.60
2018-04-07T08:09:06.835Z,82.40
2018-04-07T08:11:35.078Z,81.70
2018-04-07T08:14:02.560Z,81.70
2018-04-07T08:16:31.444Z,81.80
2018-04-07T08:18:59.667Z,82.10
2018-04-07T08:21:27.173Z,81.50
2018-04-07T08:23:56.162Z,81.00
2018-04-07T08:26:25.200Z,80.30
2018-04-07T08:28:52.738Z,80.30
2018-04-07T08:31:21.036Z,80.80
2018-04-07T08:33:48.572Z,80.80
2018-04-07T08:36:16.942Z,81.10
2018-04-07T08:38:45.198Z,81.40
2018-04-07T08:41:14.520Z,80.40
2018-04-07T08:43:42.787Z,79.50
2018-04-07T08:46:10.266Z,79.40
2018-04-07T08:48:37.837Z,79.90
2018-04-07T08:51:05.464Z,78.30
2018-04-07T08:53:32.911Z,77.60
2018-04-07T08:56:00.401Z,77.80
2018-04-07T08:58:27.887Z,77.50
2018-04-07T09:00:55.371Z,76.20
2018-04-07T09:03:23.010Z,76.40
2018-04-07T09:05:50.494Z,76.50
2018-04-07T09:08:18.893Z,76.20
2018-04-07T09:10:47.139Z,74.40
2018-04-07T09:13:15.598Z,74.40
2018-04-07T09:15:43.240Z,74.90
2018-04-07T09:18:10.730Z,74.80
2018-04-07T09:20:38.196Z,72.90
2018-04-07T09:23:05.688Z,72.70
2018-04-07T09:25:33.929Z,72.80
2018-04-07T09:28:01.618Z,72.80
2018-04-07T09:30:29.120Z,71.60
2018-04-07T09:32:56.742Z,70.80
2018-04-07T09:35:25.735Z,71.20
2018-04-07T09:37:53.378Z,71.20
2018-04-07T09:40:21.787Z,71.40
2018-04-07T09:42:49.612Z,71.40
2018-04-07T09:45:17.158Z,71.00
2018-04-07T09:47:44.914Z,70.90
2018-04-07T09:50:12.482Z,71.30
2018-04-07T09:52:40.183Z,70.90
2018-04-07T09:55:08.445Z,70.80
2018-04-07T09:57:35.977Z,70.90
2018-04-07T10:00:03.563Z,70.20
2018-04-07T10:02:35.755Z,70.10
2018-04-07T10:05:04.026Z,69.70
2018-04-07T10:07:32.292Z,67.50
2018-04-07T10:09:59.796Z,67.50
2018-04-07T10:12:27.268Z,66.90
2018-04-07T10:14:54.768Z,65.90
2018-04-07T10:17:23.106Z,68.30
2018-04-07T10:19:50.614Z,68.20
2018-04-07T10:22:19.111Z,67.80
2018-04-07T10:24:46.681Z,67.80
2018-04-07T10:27:14.311Z,65.90
2018-04-07T10:29:42.580Z,63.40
2018-04-07T10:32:10.850Z,63.00
2018-04-07T10:34:38.926Z,62.80
2018-04-07T10:37:07.200Z,62.20
2018-04-07T10:39:35.502Z,61.20
2018-04-07T10:42:03.143Z,61.20
2018-04-07T10:44:30.710Z,60.60
2018-04-07T10:46:59.025Z,59.60
2018-04-07T10:49:26.577Z,59.60
2018-04-07T10:51:54.098Z,60.30
2018-04-07T10:54:22.414Z,59.60
2018-04-07T10:56:49.937Z,59.50
2018-04-07T10:59:18.298Z,58.60
2018-04-07T11:01:47.087Z,58.80
2018-04-07T11:04:14.950Z,58.80
2018-04-07T11:06:43.231Z,58.10
2018-04-07T11:09:10.790Z,58.90
2018-04-07T11:11:39.267Z,58.60
2018-04-07T11:14:08.723Z,58.00
2018-04-07T11:16:36.315Z,58.00
2018-04-07T11:19:04.791Z,58.30
2018-04-07T11:21:32.291Z,57.50
2018-04-07T11:23:59.790Z,57.70
2018-04-07T11:26:27.374Z,58.20
2018-04-07T11:28:55.021Z,58.40
2018-04-07T11:31:22.605Z,58.10
2018-04-07T11:33:50.136Z,56.90
2018-04-07T11:36:17.672Z,57.10
2018-04-07T11:38:45.160Z,56.90
2018-04-07T11:41:14.139Z,56.10
2018-04-07T11:43:41.633Z,56.00
2018-04-07T11:46:09.255Z,55.70
2018-04-07T11:48:36.754Z,55.00
2018-04-07T11:51:04.985Z,54.90
2018-04-07T11:53:32.632Z,54.90
2018-04-07T11:56:00.109Z,53.40
2018-04-07T11:58:27.588Z,53.70
2018-04-07T12:00:55.068Z,54.10
2018-04-07T12:03:23.309Z,53.20
2018-04-07T12:05:50.809Z,53.10
2018-04-07T12:08:19.112Z,52.00
2018-04-07T12:10:46.602Z,51.90
2018-04-07T12:13:14.190Z,52.50
2018-04-07T12:15:41.658Z,52.20
2018-04-07T12:18:09.883Z,48.90
2018-04-07T12:20:37.365Z,48.90
2018-04-07T12:23:04.914Z,48.60
2018-04-07T12:25:32.585Z,49.00
2018-04-07T12:28:00.081Z,48.10
2018-04-07T12:30:27.736Z,47.30
2018-04-07T12:32:56.778Z,47.30
2018-04-07T12:35:24.380Z,47.20
2018-04-07T12:37:52.634Z,48.00
2018-04-07T12:40:20.121Z,47.90
2018-04-07T12:42:48.416Z,48.00
2018-04-07T12:45:15.978Z,47.90
2018-04-07T12:47:43.465Z,48.20
2018-04-07T12:50:11.573Z,48.80
2018-04-07T12:52:39.818Z,46.30
2018-04-07T12:55:07.316Z,46.30
2018-04-07T12:57:35.642Z,46.60
2018-04-07T13:00:03.102Z,46.60
2018-04-07T13:02:30.581Z,47.50
2018-04-07T13:04:58.848Z,47.60
2018-04-07T13:07:26.422Z,47.60
2018-04-07T13:09:53.894Z,48.10
2018-04-07T13:12:22.139Z,46.40
2018-04-07T13:14:49.613Z,46.40
2018-04-07T13:17:18.016Z,45.00
2018-04-07T13:19:45.655Z,45.40
2018-04-07T13:22:13.230Z,45.90
2018-04-07T13:24:40.715Z,46.30
2018-04-07T13:27:08.295Z,46.70
2018-04-07T13:29:35.806Z,45.80
2018-04-07T13:32:04.113Z,45.50
2018-04-07T13:34:32.467Z,45.50
2018-04-07T13:36:59.996Z,45.60
2018-04-07T13:39:27.479Z,45.40
2018-04-07T13:41:55.732Z,45.30
2018-04-07T13:44:23.388Z,45.30
2018-04-07T13:46:50.849Z,46.20
2018-04-07T13:49:18.502Z,42.70
2018-04-07T13:51:45.979Z,43.30
2018-04-07T13:54:14.314Z,43.40
2018-04-07T13:56:41.811Z,43.40
2018-04-07T13:59:10.078Z,43.90
2018-04-07T14:01:37.534Z,43.90
2018-04-07T14:04:05.022Z,44.50
2018-04-07T14:06:32.642Z,43.70
2018-04-07T14:09:00.239Z,43.80
2018-04-07T14:11:27.717Z,43.30
2018-04-07T14:13:55.184Z,43.50
2018-04-07T14:16:23.234Z,43.20
2018-04-07T14:18:51.465Z,42.40
2018-04-07T14:21:19.003Z,42.40
2018-04-07T14:23:46.465Z,42.80
2018-04-07T14:26:13.979Z,42.60
2018-04-07T14:28:42.065Z,42.80
2018-04-07T14:31:09.563Z,43.20
2018-04-07T14:33:37.054Z,43.60
2018-04-07T14:36:05.310Z,43.60
2018-04-07T14:38:32.919Z,43.50
2018-04-07T14:41:00.420Z,43.10
2018-04-07T14:43:28.690Z,42.90
2018-04-07T14:45:56.175Z,42.90
2018-04-07T14:48:24.495Z,43.40
2018-04-07T14:50:52.149Z,43.30
2018-04-07T14:53:19.638Z,43.20
2018-04-07T14:55:47.508Z,43.70
2018-04-07T14:58:15.037Z,43.20
2018-04-07T15:00:42.525Z,43.00
2018-04-07T15:03:10.238Z,42.60
2018-04-07T15:05:37.741Z,43.30
2018-04-07T15:08:05.454Z,43.60
2018-04-07T15:10:32.953Z,44.00
2018-04-07T15:13:00.460Z,44.70
2018-04-07T15:15:28.900Z,44.20
2018-04-07T15:17:56.581Z,44.20
2018-04-07T15:20:24.843Z,45.10
2018-04-07T15:22:52.339Z,44.40
2018-04-07T15:25:19.842Z,43.90
2018-04-07T15:27:47.334Z,43.60
2018-04-07T15:30:15.708Z,44.30
2018-04-07T15:32:44.096Z,44.30
2018-04-07T15:35:11.846Z,44.20
2018-04-07T15:37:39.530Z,45.00
2018-04-07T15:40:07.789Z,44.20
2018-04-07T15:42:36.527Z,43.40
2018-04-07T15:45:04.218Z,43.40
2018-04-07T15:47:31.763Z,44.40
2018-04-07T15:49:59.432Z,44.60
2018-04-07T15:52:27.027Z,44.10
2018-04-07T15:54:55.497Z,44.40
2018-04-07T15:57:23.022Z,44.40
2018-04-07T15:59:50.523Z,44.30
2018-04-07T16:02:18.330Z,44.80
2018-04-07T16:04:46.786Z,43.70
2018-04-07T16:07:14.946Z,44.00
2018-04-07T16:09:43.210Z,44.40
2018-04-07T16:12:11.589Z,44.50
2018-04-07T16:14:39.870Z,44.10
2018-04-07T16:17:08.215Z,44.20
2018-04-07T16:19:35.711Z,44.20
2018-04-07T16:22:04.789Z,44.20
2018-04-07T16:24:33.197Z,44.80
2018-04-07T16:27:00.839Z,44.30
2018-04-07T16:29:29.205Z,44.90
2018-04-07T16:31:57.187Z,44.90
2018-04-07T16:34:26.353Z,45.40
2018-04-07T16:36:53.962Z,45.40
2018-04-07T16:39:21.482Z,45.20
2018-04-07T16:41:48.973Z,44.60
2018-04-07T16:44:16.469Z,44.90
2018-04-07T16:46:43.939Z,44.60
2018-04-07T16:49:11.425Z,44.70
2018-04-07T16:51:38.889Z,44.90
2018-04-07T16:54:07.156Z,44.30
2018-04-07T16:56:35.387Z,44.10
2018-04-07T16:59:02.885Z,44.10
2018-04-07T17:01:30.353Z,44.20
2018-04-07T17:03:58.617Z,44.70
2018-04-07T17:06:26.094Z,44.70
2018-04-07T17:08:54.340Z,45.30
2018-04-07T17:11:21.871Z,45.30
2018-04-07T17:13:49.353Z,45.80
2018-04-07T17:16:18.384Z,45.40
2018-04-07T17:18:46.632Z,45.60
2018-04-07T17:21:14.107Z,45.60
2018-04-07T17:23:42.363Z,46.00
2018-04-07T17:26:09.827Z,46.00
2018-04-07T17:28:38.080Z,46.30
2018-04-07T17:31:05.553Z,45.70
2018-04-07T17:33:33.052Z,45.90
2018-04-07T17:36:00.532Z,46.70
2018-04-07T17:38:28.020Z,46.00
2018-04-07T17:40:55.505Z,46.40
2018-04-07T17:43:23.759Z,47.20
2018-04-07T17:45:51.226Z,47.20
2018-04-07T17:48:19.654Z,47.50
2018-04-07T17:50:47.118Z,47.40
2018-04-07T17:53:14.598Z,47.80
2018-04-07T17:55:42.074Z,47.80
2018-04-07T17:58:10.406Z,48.20
2018-04-07T18:00:38.415Z,48.20
2018-04-07T18:03:06.006Z,48.50
2018-04-07T18:05:33.499Z,48.60
2018-04-07T18:08:00.997Z,49.00
2018-04-07T18:10:29.652Z,48.80
2018-04-07T18:12:57.573Z,48.80
2018-04-07T18:15:25.255Z,49.50
2018-04-07T18:17:52.838Z,49.60
2018-04-07T18:20:20.353Z,49.40
2018-04-07T18:22:48.150Z,49.50
2018-04-07T18:25:15.890Z,49.10
2018-04-07T18:27:43.794Z,49.40
2018-04-07T18:30:12.246Z,49.80
2018-04-07T18:32:39.835Z,49.80
2018-04-07T18:35:07.574Z,49.70
2018-04-07T18:37:35.158Z,50.00
2018-04-07T18:40:02.999Z,50.70
2018-04-07T18:42:30.758Z,52.00
2018-04-07T18:44:58.607Z,52.20
2018-04-07T18:47:26.277Z,52.40
2018-04-07T18:49:54.140Z,52.70
2018-04-07T18:52:21.791Z,53.00
2018-04-07T18:54:50.277Z,53.40
2018-04-07T18:57:18.268Z,53.40
2018-04-07T18:59:46.143Z,53.80
2018-04-07T19:02:13.894Z,53.70
2018-04-07T19:04:41.832Z,54.90
2018-04-07T19:07:09.452Z,54.40
2018-04-07T19:09:37.196Z,53.70
2018-04-07T19:12:04.870Z,53.90
2018-04-07T19:14:33.229Z,53.40
2018-04-07T19:17:00.727Z,53.40
2018-04-07T19:19:28.225Z,53.50
2018-04-07T19:21:55.835Z,53.70
2018-04-07T19:24:23.404Z,54.20
2018-04-07T19:26:51.690Z,56.60
2018-04-07T19:29:19.155Z,56.50
2018-04-07T19:31:46.698Z,58.00
2018-04-07T19:34:14.281Z,59.80
2018-04-07T19:36:42.546Z,60.20
2018-04-07T19:39:10.047Z,60.10
2018-04-07T19:41:37.554Z,61.00
2018-04-07T19:44:05.149Z,62.20
2018-04-07T19:46:32.729Z,62.00
2018-04-07T19:49:00.350Z,61.90
2018-04-07T19:51:28.586Z,62.90
2018-04-07T19:53:56.149Z,62.90
2018-04-07T19:56:23.844Z,62.80
2018-04-07T19:58:52.095Z,59.30
2018-04-07T20:01:19.587Z,59.30
2018-04-07T20:03:52.650Z,59.40
2018-04-07T20:06:20.133Z,59.10
2018-04-07T20:08:48.394Z,58.40
2018-04-07T20:11:15.945Z,58.30
2018-04-07T20:13:43.435Z,58.60
2018-04-07T20:16:10.906Z,58.20
2018-04-07T20:18:38.398Z,58.40
2018-04-07T20:21:05.870Z,58.60
2018-04-07T20:23:33.358Z,58.50
2018-04-07T20:26:00.978Z,59.40
2018-04-07T20:28:28.445Z,59.50
2018-04-07T20:30:55.922Z,59.50
2018-04-07T20:33:24.169Z,59.90
2018-04-07T20:35:51.650Z,59.90
2018-04-07T20:38:19.873Z,60.00
2018-04-07T20:40:56.027Z,60.00
2018-04-07T20:43:23.500Z,61.00
2018-04-07T20:45:51.003Z,62.00
2018-04-07T20:48:19.256Z,63.00
2018-04-07T20:50:46.761Z,62.90
2018-04-07T20:53:14.233Z,63.30
2018-04-07T20:55:41.729Z,62.80
2018-04-07T20:58:09.219Z,63.60
2018-04-07T21:00:36.865Z,63.70
2018-04-07T21:03:05.193Z,65.00
2018-04-07T21:05:32.702Z,64.30
2018-04-07T21:08:00.943Z,62.30
2018-04-07T21:10:28.429Z,62.30
2018-04-07T21:12:56.698Z,63.60
2018-04-07T21:15:24.172Z,63.60
2018-04-07T21:17:52.420Z,65.70
2018-04-07T21:20:19.900Z,65.70
2018-04-07T21:22:48.160Z,66.10
2018-04-07T21:25:15.635Z,66.10
2018-04-07T21:27:44.083Z,64.70
2018-04-07T21:30:11.562Z,64.70
2018-04-07T21:32:40.312Z,63.70
2018-04-07T21:35:08.532Z,63.50
2018-04-07T21:37:36.892Z,63.60
2018-04-07T21:40:04.373Z,63.60
2018-04-07T21:42:32.617Z,63.70
2018-04-07T21:45:00.082Z,63.70
2018-04-07T21:47:28.838Z,64.90
2018-04-07T21:49:56.318Z,64.20
2018-04-07T21:52:23.797Z,64.00
2018-04-07T21:54:52.520Z,64.20
2018-04-07T21:57:23.252Z,64.10
2018-04-07T21:59:50.914Z,64.50
2018-04-07T22:02:18.447Z,64.90
2018-04-07T22:04:46.766Z,65.60
2018-04-07T22:07:14.309Z,65.50
2018-04-07T22:09:42.021Z,66.20
2018-04-07T22:12:09.601Z,65.90
2018-04-07T22:14:38.026Z,66.10
2018-04-07T22:17:05.602Z,66.00
2018-04-07T22:19:33.965Z,66.20
2018-04-07T22:22:01.446Z,66.30
2018-04-07T22:24:28.986Z,66.60
2018-04-07T22:26:56.549Z,66.60
2018-04-07T22:29:24.034Z,66.50
2018-04-07T22:31:51.513Z,66.80
2018-04-07T22:34:18.994Z,66.90
2018-04-07T22:36:46.479Z,67.00
2018-04-07T22:39:13.944Z,66.90
2018-04-07T22:41:41.463Z,66.80
2018-04-07T22:44:08.993Z,66.80
2018-04-07T22:46:37.230Z,66.40
2018-04-07T22:49:04.726Z,66.40
2018-04-07T22:51:32.982Z,66.30
2018-04-07T22:54:00.459Z,66.30
2018-04-07T22:56:28.710Z,66.70
2018-04-07T22:58:56.176Z,66.70
2018-04-07T23:01:23.655Z,67.10
2018-04-07T23:03:51.916Z,67.10
2018-04-07T23:06:19.442Z,67.10
2018-04-07T23:08:46.920Z,67.10
2018-04-07T23:11:15.188Z,67.50
2018-04-07T23:13:42.664Z,67.50
2018-04-07T23:16:10.132Z,67.90
2018-04-07T23:18:38.378Z,68.20
2018-04-07T23:21:05.933Z,68.20
2018-04-07T23:23:33.540Z,68.10
2018-04-07T23:26:01.037Z,68.60
2018-04-07T23:28:28.682Z,68.80
2018-04-07T23:30:56.157Z,68.70
2018-04-07T23:33:23.640Z,68.90
2018-04-07T23:35:52.588Z,69.10
2018-04-07T23:38:20.068Z,69.00
2018-04-07T23:40:47.560Z,69.00
2018-04-07T23:43:15.947Z,68.20
2018-04-07T23:45:44.200Z,67.90
2018-04-07T23:48:11.669Z,67.90
2018-04-07T23:50:39.926Z,68.00
2018-04-07T23:53:07.595Z,68.00
2018-04-07T23:55:35.252Z,68.20
2018-04-07T23:58:02.728Z,68.80
